Time;durP1;ratioP1;P1;durP2;ratioP2;P2;SDS_P1;SDS_P2;PMS_P1;PMS_P2;Temp;Humidity;BMP_temperature;BMP_pressure;BME280_temperature;BME280_humidity;BME280_pressure;Samples;Min_cycle;Max_cycle;Signal;HPM_P1;HPM_P2
2024/04/18 00:00:36;;;;;;;;;;;;;;;22.00;29.34;96296.94;5417750;26;1853;-73
2024/04/18 00:03:02;;;;;;;;;;;;;;;22.04;29.18;96308.84;5418718;26;938;-74
2024/04/18 00:05:30;;;;;;;;;;;;;;;22.05;29.18;96310.41;5415719;26;1706;-73
2024/04/18 00:07:56;;;;;;;;;;;;;;;21.87;29.25;96327.59;5381740;26;940;-73
2024/04/18 00:10:21;;;;;;;;;;;;;;;21.92;29.33;96329.75;5323600;26;996;-72
2024/04/18 00:12:47;;;;;;;;;;;;;;;22.02;29.23;96322.69;5352755;26;917;-73
2024/04/18 00:15:21;;;;;;;;;;;;;;;21.98;29.11;96322.13;5352363;26;1182;-73
2024/04/18 00:17:53;;;;;;;;;;;;;;;22.14;28.79;96295.41;5381924;26;1009;-74
2024/04/18 00:20:22;;;;;;;;;;;;;;;22.09;28.97;96316.66;5354074;26;2023;-73
2024/04/18 00:22:47;;;;;;;;;;;;;;;21.94;29.36;96328.00;5381774;26;1021;-73
2024/04/18 00:25:13;;;;;;;;;;;;;;;22.18;28.97;96330.75;5352204;26;950;-74
2024/04/18 00:27:53;;;;;;;;;;;;;;;21.90;29.15;96338.72;5381661;26;1042;-73
2024/04/18 00:30:40;;;;;;;;;;;;;;;21.89;29.50;96342.06;5356826;26;1056;-73
2024/04/18 00:33:05;;;;;;;;;;;;;;;21.92;29.46;96346.75;5381675;26;971;-73
2024/04/18 00:35:37;;;;;;;;;;;;;;;22.16;28.96;96338.94;5359411;26;1888;-72
2024/04/18 00:38:09;;;;;;;;;;;;;;;21.67;29.50;96348.09;5382748;26;931;-73
2024/04/18 00:40:39;;;;;;;;;;;;;;;21.87;29.29;96345.38;5384473;26;1815;-73
2024/04/18 00:43:15;;;;;;;;;;;;;;;21.76;29.32;96328.16;5359907;26;2217;-73
2024/04/18 00:45:41;;;;;;;;;;;;;;;22.06;28.91;96335.41;5382740;26;1062;-73
2024/04/18 00:48:18;;;;;;;;;;;;;;;21.81;29.32;96335.97;5381219;26;1092;-73
2024/04/18 00:50:44;;;;;;;;;;;;;;;22.15;28.61;96325.28;5350613;26;1141;-73
2024/04/18 00:53:17;;;;;;;;;;;;;;;21.92;28.94;96324.09;5383452;26;1668;-73
2024/04/18 00:55:42;;;;;;;;;;;;;;;21.92;29.14;96324.09;5387027;26;1048;-73
2024/04/18 00:58:11;;;;;;;;;;;;;;;22.07;28.97;96319.19;5357851;26;1133;-73
2024/04/18 01:00:39;;;;;;;;;;;;;;;22.11;28.69;96336.81;5358095;26;1829;-73
2024/04/18 01:03:25;;;;;;;;;;;;;;;22.20;28.72;96339.53;5367410;26;995;-73
2024/04/18 01:06:03;;;;;;;;;;;;;;;22.10;28.94;96335.22;5345980;26;1081;-72
2024/04/18 01:08:49;;;;;;;;;;;;;;;22.05;29.27;96347.22;5307483;26;1918;-73
2024/04/18 01:11:28;;;;;;;;;;;;;;;22.15;28.94;96328.13;5286153;26;998;-73
2024/04/18 01:13:53;;;;;;;;;;;;;;;22.00;29.25;96339.41;5254816;27;1292;-72
2024/04/18 01:16:20;;;;;;;;;;;;;;;22.09;29.12;96336.50;5255242;26;1114;-73
2024/04/18 01:18:46;;;;;;;;;;;;;;;22.15;28.97;96354.38;5266736;26;1856;-73
2024/04/18 01:21:15;;;;;;;;;;;;;;;22.19;29.02;96377.66;5317955;26;964;-73
2024/04/18 01:23:40;;;;;;;;;;;;;;;22.06;29.05;96386.38;5325772;26;2154;-74
2024/04/18 01:26:09;;;;;;;;;;;;;;;21.93;29.51;96370.97;5345852;26;1101;-73
2024/04/18 01:28:35;;;;;;;;;;;;;;;22.02;29.31;96376.50;5317063;26;998;-74
2024/04/18 01:31:00;;;;;;;;;;;;;;;22.09;29.31;96390.31;5316636;26;1511;-73
2024/04/18 01:33:26;;;;;;;;;;;;;;;22.04;29.44;96362.66;5316808;26;1162;-73
2024/04/18 01:35:51;;;;;;;;;;;;;;;22.28;28.95;96345.59;5316807;26;919;-74
2024/04/18 01:38:20;;;;;;;;;;;;;;;22.08;29.38;96349.09;5330684;26;2236;-72
2024/04/18 01:40:45;;;;;;;;;;;;;;;22.02;29.49;96334.84;5276701;27;1839;-73
2024/04/18 01:43:30;;;;;;;;;;;;;;;22.22;29.14;96314.31;5286515;26;1236;-73
2024/04/18 01:46:14;;;;;;;;;;;;;;;21.92;29.49;96324.09;5328801;26;1681;-73
2024/04/18 01:48:57;;;;;;;;;;;;;;;22.02;29.40;96334.03;5281865;27;1263;-74
2024/04/18 01:51:42;;;;;;;;;;;;;;;21.89;29.59;96322.22;5242718;27;1011;-74
2024/04/18 01:54:28;;;;;;;;;;;;;;;22.12;29.12;96317.75;5229032;27;1539;-72
2024/04/18 01:56:54;;;;;;;;;;;;;;;22.13;29.13;96342.78;5209808;27;1388;-73
2024/04/18 01:59:22;;;;;;;;;;;;;;;22.00;29.06;96359.25;5209495;27;1823;-73
2024/04/18 02:01:50;;;;;;;;;;;;;;;22.06;29.09;96368.63;5209897;27;1104;-73
2024/04/18 02:04:19;;;;;;;;;;;;;;;22.01;29.11;96377.78;5212783;27;960;-73
2024/04/18 02:06:47;;;;;;;;;;;;;;;21.99;29.27;96383.94;5185273;27;1175;-74
2024/04/18 02:09:21;;;;;;;;;;;;;;;22.13;29.07;96376.78;5179687;27;1200;-74
2024/04/18 02:11:50;;;;;;;;;;;;;;;22.08;29.14;96366.88;5196812;27;963;-73
2024/04/18 02:14:34;;;;;;;;;;;;;;;22.22;28.89;96354.00;5214165;27;1856;-73
2024/04/18 02:16:59;;;;;;;;;;;;;;;22.05;29.18;96347.22;5212768;27;1162;-73
2024/04/18 02:19:25;;;;;;;;;;;;;;;22.01;29.17;96338.13;5251441;27;1838;-73
2024/04/18 02:21:56;;;;;;;;;;;;;;;22.09;29.19;96311.00;5318761;26;963;-73
2024/04/18 02:24:34;;;;;;;;;;;;;;;22.06;29.16;96311.97;5391477;26;937;-73
2024/04/18 02:26:59;;;;;;;;;;;;;;;22.13;29.20;96305.19;5389646;26;1132;-73
2024/04/18 02:29:25;;;;;;;;;;;;;;;21.95;29.29;96328.78;5394906;26;1769;-73
2024/04/18 02:31:57;;;;;;;;;;;;;;;22.02;29.27;96351.03;5361402;26;1065;-74
2024/04/18 02:34:32;;;;;;;;;;;;;;;21.97;29.19;96344.00;5363968;26;931;-73
2024/04/18 02:37:17;;;;;;;;;;;;;;;22.21;28.89;96338.28;5416030;26;2063;-73
2024/04/18 02:39:43;;;;;;;;;;;;;;;22.07;29.10;96313.53;5389479;26;1849;-74
2024/04/18 02:42:22;;;;;;;;;;;;;;;21.83;29.43;96283.28;5393436;26;1215;-73
2024/04/18 02:44:59;;;;;;;;;;;;;;;21.77;29.44;96285.22;5418909;26;981;-73
2024/04/18 02:47:24;;;;;;;;;;;;;;;21.81;29.41;96313.31;5411939;26;1626;-73
2024/04/18 02:50:03;;;;;;;;;;;;;;;22.16;28.76;96321.19;5391018;26;1812;-73
2024/04/18 02:52:29;;;;;;;;;;;;;;;22.02;29.02;96322.69;5417841;26;1965;-74
2024/04/18 02:54:54;;;;;;;;;;;;;;;22.24;28.77;96311.81;5421229;26;883;-73
2024/04/18 02:57:20;;;;;;;;;;;;;;;22.06;28.94;96303.47;5421408;26;854;-73
2024/04/18 02:59:45;;;;;;;;;;;;;;;22.12;28.78;96287.38;5389839;26;1818;-74
2024/04/18 03:02:20;;;;;;;;;;;;;;;22.08;28.81;96275.44;5382963;26;2007;-74
2024/04/18 03:04:45;;;;;;;;;;;;;;;21.94;29.05;96281.91;5353092;26;1749;-73
2024/04/18 03:07:11;;;;;;;;;;;;;;;22.16;28.64;96296.47;5368136;26;1657;-73
2024/04/18 03:09:45;;;;;;;;;;;;;;;21.63;29.47;96305.03;5334364;26;1162;-73
2024/04/18 03:12:24;;;;;;;;;;;;;;;21.76;29.55;96297.81;5416879;26;2026;-73
2024/04/18 03:14:49;;;;;;;;;;;;;;;21.88;29.09;96290.31;5387330;26;950;-73
2024/04/18 03:17:35;;;;;;;;;;;;;;;22.07;28.88;96279.53;5417797;26;968;-73
2024/04/18 03:20:00;;;;;;;;;;;;;;;22.10;28.63;96284.22;5417729;26;1829;-73
2024/04/18 03:22:26;;;;;;;;;;;;;;;21.59;29.02;96231.63;5318240;26;1229;-73
2024/04/18 03:24:58;;;;;;;;;;;;;;;22.11;29.01;96336.81;5318375;26;1026;-73
2024/04/18 03:27:29;;;;;;;;;;;;;;;21.89;29.24;96359.81;5316724;26;1907;-74
2024/04/18 03:29:54;;;;;;;;;;;;;;;22.24;28.53;96340.13;5317888;26;1846;-74
2024/04/18 03:32:36;;;;;;;;;;;;;;;22.15;28.92;96320.41;5321471;26;1010;-74
2024/04/18 03:35:01;;;;;;;;;;;;;;;22.11;28.96;96328.31;5312114;27;930;-73
2024/04/18 03:37:27;;;;;;;;;;;;;;;21.96;29.21;96341.66;5312853;27;964;-73
2024/04/18 03:39:52;;;;;;;;;;;;;;;22.22;28.77;96342.66;5312881;27;1826;-73
2024/04/18 03:42:18;;;;;;;;;;;;;;;22.18;28.83;96347.75;5284065;27;1206;-72
2024/04/18 03:44:53;;;;;;;;;;;;;;;21.92;29.37;96346.75;5331699;26;1920;-74
2024/04/18 03:47:18;;;;;;;;;;;;;;;22.22;29.11;96331.31;5290737;27;1917;-73
2024/04/18 03:50:04;;;;;;;;;;;;;;;21.97;29.44;96341.19;5278371;27;999;-73
2024/04/18 03:52:36;;;;;;;;;;;;;;;21.96;29.59;96352.97;5288042;26;973;-73
2024/04/18 03:55:20;;;;;;;;;;;;;;;22.06;29.42;96351.63;5322879;26;1061;-73
2024/04/18 03:57:48;;;;;;;;;;;;;;;22.26;29.06;96343.25;5337710;26;1685;-73
2024/04/18 04:00:13;;;;;;;;;;;;;;;22.26;29.11;96343.25;5283682;27;1834;-73
2024/04/18 04:02:39;;;;;;;;;;;;;;;22.04;29.28;96342.84;5284112;27;1248;-73
2024/04/18 04:05:05;;;;;;;;;;;;;;;22.33;28.99;96337.19;5283887;27;962;-73
2024/04/18 04:07:30;;;;;;;;;;;;;;;22.07;29.42;96347.50;5283745;27;1008;-73
2024/04/18 04:09:56;;;;;;;;;;;;;;;22.18;29.32;96370.44;5312279;27;1476;-72
2024/04/18 04:12:21;;;;;;;;;;;;;;;22.13;29.39;96384.50;5255774;27;992;-73
2024/04/18 04:15:10;;;;;;;;;;;;;;;21.99;29.58;96375.44;5244471;27;1011;-73
2024/04/18 04:17:55;;;;;;;;;;;;;;;22.00;29.60;96387.56;5177928;27;983;-73
2024/04/18 04:20:39;;;;;;;;;;;;;;;21.95;29.56;96368.41;5165072;27;1850;-73
2024/04/18 04:23:04;;;;;;;;;;;;;;;21.97;29.46;96363.06;5183874;27;970;-73
2024/04/18 04:25:50;;;;;;;;;;;;;;;22.04;29.22;96371.16;5187750;27;1021;-75
2024/04/18 04:28:15;;;;;;;;;;;;;;;22.16;29.04;96367.28;5081949;27;999;-74
2024/04/18 04:30:41;;;;;;;;;;;;;;;22.02;29.03;96356.69;5145517;27;1310;-75
2024/04/18 04:33:06;;;;;;;;;;;;;;;21.99;28.80;96357.69;5118893;27;1236;-75
2024/04/18 04:35:33;;;;;;;;;;;;;;;21.74;29.53;96354.13;5118879;27;1251;-75
2024/04/18 04:37:59;;;;;;;;;;;;;;;22.01;28.93;96346.63;5146108;27;866;-75
2024/04/18 04:40:31;;;;;;;;;;;;;;;21.89;28.98;96345.66;5093657;27;1850;-75
2024/04/18 04:42:57;;;;;;;;;;;;;;;21.78;29.22;96357.56;5145059;27;902;-75
2024/04/18 04:45:22;;;;;;;;;;;;;;;21.73;29.10;96375.22;5145285;27;959;-75
2024/04/18 04:48:03;;;;;;;;;;;;;;;21.79;29.34;96378.16;5118590;27;1235;-75
2024/04/18 04:50:29;;;;;;;;;;;;;;;22.07;28.74;96387.97;5145541;27;1040;-75
2024/04/18 04:53:13;;;;;;;;;;;;;;;22.04;28.83;96376.81;5214643;27;1053;-74
2024/04/18 04:55:57;;;;;;;;;;;;;;;21.85;29.11;96354.34;5225533;27;901;-74
2024/04/18 04:58:23;;;;;;;;;;;;;;;21.99;28.89;96363.34;5269575;27;1020;-75
2024/04/18 05:00:49;;;;;;;;;;;;;;;21.96;29.00;96373.59;5291805;26;1829;-75
2024/04/18 05:03:34;;;;;;;;;;;;;;;22.10;28.70;96363.53;5357858;26;1483;-75
2024/04/18 05:06:19;;;;;;;;;;;;;;;21.88;28.96;96340.50;5380555;26;1085;-75
2024/04/18 05:09:05;;;;;;;;;;;;;;;22.16;28.73;96361.63;5380538;26;1291;-75
2024/04/18 05:11:31;;;;;;;;;;;;;;;22.27;28.36;96373.13;5322925;26;1373;-75
2024/04/18 05:13:56;;;;;;;;;;;;;;;21.98;29.25;96376.72;5351792;26;912;-75
2024/04/18 05:16:42;;;;;;;;;;;;;;;22.04;28.98;96382.50;5332193;26;1022;-75
2024/04/18 05:19:10;;;;;;;;;;;;;;;22.02;29.24;96379.34;5352065;26;1864;-75
2024/04/18 05:21:36;;;;;;;;;;;;;;;22.29;28.61;96378.34;5351516;26;936;-74
2024/04/18 05:24:21;;;;;;;;;;;;;;;22.15;28.88;96370.59;5331806;26;1087;-75
2024/04/18 05:26:46;;;;;;;;;;;;;;;22.22;28.68;96371.00;5351509;26;1337;-75
2024/04/18 05:31:59;;;;;;;;;;;;;;;22.19;28.88;96371.97;5311780;27;885;-75
2024/04/18 05:34:25;;;;;;;;;;;;;;;22.04;29.22;96376.81;5283128;27;937;-76
2024/04/18 05:36:50;;;;;;;;;;;;;;;22.26;28.90;96359.47;5282816;27;887;-75
2024/04/18 05:39:16;;;;;;;;;;;;;;;22.32;28.74;96361.13;5314210;27;1858;-75
2024/04/18 05:41:42;;;;;;;;;;;;;;;22.12;29.02;96372.34;5314132;27;965;-75
2024/04/18 05:44:28;;;;;;;;;;;;;;;22.24;28.92;96396.03;5313642;27;1117;-74
2024/04/18 05:46:54;;;;;;;;;;;;;;;22.01;29.17;96383.47;5314065;27;896;-75
2024/04/18 05:49:21;;;;;;;;;;;;;;;21.89;29.30;96398.69;5314038;27;880;-75
2024/04/18 05:51:46;;;;;;;;;;;;;;;22.15;29.05;96405.38;5279495;27;905;-76
2024/04/18 05:54:30;;;;;;;;;;;;;;;22.19;28.80;96400.31;5230736;27;1219;-75
2024/04/18 05:57:07;;;;;;;;;;;;;;;22.05;28.91;96401.03;5253728;27;1058;-75
2024/04/18 05:59:54;;;;;;;;;;;;;;;21.95;29.24;96405.22;5227519;27;1850;-75
2024/04/18 06:02:19;;;;;;;;;;;;;;;21.98;29.26;96418.44;5252455;27;866;-75
2024/04/18 06:04:45;;;;;;;;;;;;;;;21.82;29.32;96423.28;5223646;27;1261;-75
2024/04/18 06:07:29;;;;;;;;;;;;;;;21.80;29.38;96408.81;5256123;27;977;-75
2024/04/18 06:09:54;;;;;;;;;;;;;;;21.76;29.42;96408.22;5279205;26;914;-75
2024/04/18 06:12:20;;;;;;;;;;;;;;;21.91;28.94;96416.75;5291074;26;1217;-75
2024/04/18 06:14:46;;;;;;;;;;;;;;;21.89;28.83;96438.31;5319582;26;1001;-75
2024/04/18 06:17:11;;;;;;;;;;;;;;;21.82;28.90;96451.59;5291676;26;1144;-75
2024/04/18 06:19:49;;;;;;;;;;;;;;;21.66;29.12;96446.38;5322071;26;1852;-76
2024/04/18 06:22:26;;;;;;;;;;;;;;;21.84;28.71;96446.22;5334333;26;945;-75
2024/04/18 06:25:11;;;;;;;;;;;;;;;21.86;28.55;96451.38;5382971;26;907;-75
2024/04/18 06:27:37;;;;;;;;;;;;;;;21.88;28.66;96473.56;5325086;26;1025;-75
2024/04/18 06:30:03;;;;;;;;;;;;;;;21.79;28.63;96466.69;5325132;26;1034;-76
2024/04/18 06:32:28;;;;;;;;;;;;;;;21.63;28.83;96467.13;5296294;26;1137;-74
2024/04/18 06:34:54;;;;;;;;;;;;;;;21.72;28.36;96464.25;5348480;26;1009;-74
2024/04/18 06:37:19;;;;;;;;;;;;;;;21.85;28.45;96483.81;5378840;26;924;-73
2024/04/18 06:39:45;;;;;;;;;;;;;;;21.97;28.40;96484.84;5349262;26;1852;-75
2024/04/18 06:42:11;;;;;;;;;;;;;;;21.84;28.48;96488.69;5349503;26;954;-75
2024/04/18 06:44:36;;;;;;;;;;;;;;;22.12;28.12;96491.31;5349068;26;931;-75
2024/04/18 06:47:02;;;;;;;;;;;;;;;21.60;29.06;96507.72;5320267;26;1124;-74
2024/04/18 06:49:27;;;;;;;;;;;;;;;21.68;28.89;96500.44;5347699;26;1244;-74
2024/04/18 06:51:53;;;;;;;;;;;;;;;21.91;28.29;96486.75;5347423;26;1501;-74
2024/04/18 06:54:19;;;;;;;;;;;;;;;21.92;28.45;96494.00;5318592;26;926;-74
2024/04/18 06:56:44;;;;;;;;;;;;;;;22.07;28.16;96500.47;5347567;26;884;-75
2024/04/18 06:59:10;;;;;;;;;;;;;;;21.66;28.92;96505.81;5318615;26;1928;-74
2024/04/18 07:01:39;;;;;;;;;;;;;;;22.03;28.42;96497.06;5290790;26;1149;-74
2024/04/18 07:04:05;;;;;;;;;;;;;;;21.96;28.41;96505.91;5318859;26;951;-74
2024/04/18 07:06:31;;;;;;;;;;;;;;;21.87;28.79;96511.66;5318873;26;1224;-74
2024/04/18 07:09:02;;;;;;;;;;;;;;;22.16;28.25;96508.91;5312745;27;1253;-74
2024/04/18 07:11:40;;;;;;;;;;;;;;;22.18;28.36;96525.47;5287499;27;908;-74
2024/04/18 07:14:06;;;;;;;;;;;;;;;21.92;28.85;96511.00;5285235;27;963;-74
2024/04/18 07:16:32;;;;;;;;;;;;;;;21.97;28.74;96513.16;5284638;27;1608;-74
2024/04/18 07:19:17;;;;;;;;;;;;;;;22.15;28.52;96512.25;5221619;27;1850;-74
2024/04/18 07:21:55;;;;;;;;;;;;;;;21.78;29.06;96512.50;5222991;27;991;-74
2024/04/18 07:24:23;;;;;;;;;;;;;;;21.90;28.88;96513.50;5278585;27;916;-74
2024/04/18 07:26:49;;;;;;;;;;;;;;;22.19;28.60;96507.97;5266046;27;1122;-74
2024/04/18 07:29:14;;;;;;;;;;;;;;;22.16;28.57;96517.41;5278702;27;964;-73
2024/04/18 07:31:40;;;;;;;;;;;;;;;22.04;28.70;96516.38;5278581;27;1331;-74
2024/04/18 07:34:12;;;;;;;;;;;;;;;22.01;28.83;96519.41;5278413;27;981;-75
2024/04/18 07:36:37;;;;;;;;;;;;;;;22.06;28.84;96525.19;5278583;27;995;-75
2024/04/18 07:39:05;;;;;;;;;;;;;;;22.15;28.64;96524.38;5278491;27;1825;-74
2024/04/18 07:41:30;;;;;;;;;;;;;;;22.26;28.25;96530.25;5244784;27;912;-74
2024/04/18 07:43:56;;;;;;;;;;;;;;;22.10;28.78;96522.97;5217062;27;1171;-74
2024/04/18 07:46:26;;;;;;;;;;;;;;;22.01;28.72;96536.38;5244817;27;1001;-75
2024/04/18 07:48:52;;;;;;;;;;;;;;;21.89;28.78;96534.59;5216944;27;963;-74
2024/04/18 07:51:17;;;;;;;;;;;;;;;22.07;28.69;96540.13;5211333;27;1850;-74
2024/04/18 07:53:43;;;;;;;;;;;;;;;21.91;29.21;96540.56;5184089;27;1304;-74
2024/04/18 07:56:08;;;;;;;;;;;;;;;21.77;29.11;96542.84;5171688;27;2558;-74
2024/04/18 07:58:34;;;;;;;;;;;;;;;21.91;28.72;96549.03;5151467;27;1242;-74
2024/04/18 08:00:59;;;;;;;;;;;;;;;22.14;28.39;96556.78;5145240;27;1831;-73
2024/04/18 08:03:25;;;;;;;;;;;;;;;21.91;28.64;96549.03;5119757;27;929;-74
2024/04/18 08:05:52;;;;;;;;;;;;;;;22.19;28.18;96561.78;5172077;27;1147;-76
2024/04/18 08:08:17;;;;;;;;;;;;;;;22.18;28.51;96548.91;5151528;27;1103;-74
2024/04/18 08:10:44;;;;;;;;;;;;;;;22.19;28.32;96544.78;5178651;27;1009;-74
2024/04/18 08:13:09;;;;;;;;;;;;;;;22.03;28.41;96539.53;5151432;27;988;-75
2024/04/18 08:15:42;;;;;;;;;;;;;;;21.95;28.94;96546.81;5124601;27;1133;-73
2024/04/18 08:18:08;;;;;;;;;;;;;;;21.98;28.65;96537.38;5161263;27;929;-74
2024/04/18 08:20:33;;;;;;;;;;;;;;;21.97;28.81;96547.16;5244291;27;1873;-74
2024/04/18 08:22:59;;;;;;;;;;;;;;;21.76;29.35;96537.66;5296441;27;946;-74
2024/04/18 08:25:24;;;;;;;;;;;;;;;21.98;28.91;96537.38;5313509;26;1087;-73
2024/04/18 08:27:50;;;;;;;;;;;;;;;21.90;29.11;96541.81;5318066;26;956;-74
2024/04/18 08:30:16;;;;;;;;;;;;;;;22.00;28.77;96534.84;5317838;26;1002;-74
2024/04/18 08:32:41;;;;;;;;;;;;;;;22.22;28.64;96538.13;5289025;26;1296;-74
2024/04/18 08:35:07;;;;;;;;;;;;;;;22.04;28.94;96541.09;5317601;26;907;-74
2024/04/18 08:37:32;;;;;;;;;;;;;;;21.83;28.96;96555.09;5293263;26;1169;-74
2024/04/18 08:39:58;;;;;;;;;;;;;;;22.17;28.60;96552.97;5382483;26;1818;-73
2024/04/18 08:42:24;;;;;;;;;;;;;;;21.94;29.06;96559.41;5382499;26;1080;-74
2024/04/18 08:44:51;;;;;;;;;;;;;;;22.08;28.54;96567.19;5382817;26;955;-74
2024/04/18 08:47:17;;;;;;;;;;;;;;;22.07;28.71;96574.09;5383296;26;951;-74
2024/04/18 08:49:42;;;;;;;;;;;;;;;21.94;28.98;96570.75;5382570;26;896;-74
2024/04/18 08:52:08;;;;;;;;;;;;;;;21.98;28.85;96560.81;5353278;26;1239;-74
2024/04/18 08:54:33;;;;;;;;;;;;;;;22.10;28.81;96556.97;5382648;26;905;-73
2024/04/18 08:57:00;;;;;;;;;;;;;;;22.02;28.96;96566.28;5353408;26;1458;-74
2024/04/18 08:59:25;;;;;;;;;;;;;;;22.13;28.73;96560.13;5317242;26;1833;-74
2024/04/18 09:01:51;;;;;;;;;;;;;;;22.09;28.65;96558.22;5317223;26;922;-73
2024/04/18 09:04:16;;;;;;;;;;;;;;;22.09;28.74;96565.94;5345918;26;990;-74
2024/04/18 09:06:42;;;;;;;;;;;;;;;21.93;28.93;96569.19;5346661;26;924;-74
2024/04/18 09:09:09;;;;;;;;;;;;;;;21.93;28.80;96572.81;5346065;26;1140;-73
2024/04/18 09:11:34;;;;;;;;;;;;;;;22.07;28.58;96568.44;5316239;26;1104;-74
2024/04/18 09:14:00;;;;;;;;;;;;;;;21.99;28.59;96568.03;5316957;26;938;-74
2024/04/18 09:16:27;;;;;;;;;;;;;;;21.80;29.12;96569.41;5345914;26;981;-74
2024/04/18 09:18:52;;;;;;;;;;;;;;;21.94;28.71;96576.41;5310992;27;1833;-73
2024/04/18 09:21:20;;;;;;;;;;;;;;;22.07;28.37;96588.28;5282899;27;954;-74
2024/04/18 09:23:45;;;;;;;;;;;;;;;22.00;28.51;96585.81;5254866;27;1273;-74
2024/04/18 09:26:10;;;;;;;;;;;;;;;22.01;28.51;96584.53;5311234;27;1001;-73
2024/04/18 09:28:38;;;;;;;;;;;;;;;21.91;28.66;96595.13;5311685;27;1016;-74
2024/04/18 09:31:04;;;;;;;;;;;;;;;21.97;28.40;96592.47;5311469;27;965;-74
2024/04/18 09:33:32;;;;;;;;;;;;;;;22.18;28.24;96608.41;5283190;27;1014;-74
2024/04/18 09:36:00;;;;;;;;;;;;;;;21.75;28.56;96612.53;5318853;26;961;-73
2024/04/18 09:38:29;;;;;;;;;;;;;;;21.71;28.67;96609.91;5351569;26;972;-74
2024/04/18 09:41:00;;;;;;;;;;;;;;;22.06;27.99;96603.69;5350902;26;1834;-74
2024/04/18 09:43:28;;;;;;;;;;;;;;;21.71;28.57;96590.09;5322193;26;1655;-73
2024/04/18 09:45:59;;;;;;;;;;;;;;;21.84;28.25;96596.28;5351012;26;976;-73
2024/04/18 09:48:25;;;;;;;;;;;;;;;22.11;28.00;96603.06;5351322;26;909;-74
2024/04/18 09:50:51;;;;;;;;;;;;;;;21.98;27.86;96602.50;5350717;26;809;-74
2024/04/18 09:53:16;;;;;;;;;;;;;;;21.93;28.14;96609.63;5380248;26;760;-74
2024/04/18 09:55:42;;;;;;;;;;;;;;;21.95;27.98;96611.97;5380370;26;872;-74
2024/04/18 09:58:08;;;;;;;;;;;;;;;22.04;28.08;96620.41;5381289;26;888;-74
2024/04/18 10:00:34;;;;;;;;;;;;;;;21.91;28.25;96617.78;5381159;26;1841;-74
2024/04/18 10:02:59;;;;;;;;;;;;;;;22.00;28.17;96625.47;5381606;26;872;-74
2024/04/18 10:05:25;;;;;;;;;;;;;;;21.93;28.09;96620.16;5381267;26;940;-74
2024/04/18 10:07:50;;;;;;;;;;;;;;;21.83;28.16;96625.88;5381144;26;682;-75
2024/04/18 10:10:16;;;;;;;;;;;;;;;21.70;28.58;96621.69;5381135;26;881;-73
2024/04/18 10:12:41;;;;;;;;;;;;;;;21.72;28.59;96617.13;5381109;26;726;-73
2024/04/18 10:15:07;;;;;;;;;;;;;;;21.99;28.13;96629.56;5382986;26;789;-74
2024/04/18 10:17:32;;;;;;;;;;;;;;;21.91;28.13;96628.34;5380922;26;845;-74
2024/04/18 10:20:02;;;;;;;;;;;;;;;21.85;28.17;96631.81;5380735;26;1829;-73
2024/04/18 10:22:30;;;;;;;;;;;;;;;21.84;28.32;96641.59;5378688;26;1692;-74
2024/04/18 10:24:56;;;;;;;;;;;;;;;21.95;27.87;96641.06;5384266;26;907;-74
2024/04/18 10:27:22;;;;;;;;;;;;;;;21.96;27.99;96636.19;5389522;26;1187;-74
2024/04/18 10:30:06;;;;;;;;;;;;;;;22.08;27.62;96626.69;5346468;26;1281;-74
2024/04/18 10:32:32;;;;;;;;;;;;;;;21.59;28.41;96637.13;5421687;26;951;-74
2024/04/18 10:34:58;;;;;;;;;;;;;;;21.78;28.29;96626.53;5390518;26;942;-74
2024/04/18 10:37:23;;;;;;;;;;;;;;;21.79;28.07;96628.09;5420018;26;1010;-74
2024/04/18 10:39:49;;;;;;;;;;;;;;;21.99;27.80;96635.22;5420369;26;1814;-74
2024/04/18 10:42:18;;;;;;;;;;;;;;;21.84;27.92;96658.56;5420418;26;1082;-75
2024/04/18 10:44:45;;;;;;;;;;;;;;;21.87;28.01;96653.25;5420155;26;887;-74
2024/04/18 10:47:11;;;;;;;;;;;;;;;22.06;27.60;96651.84;5420047;26;1023;-75
2024/04/18 10:49:38;;;;;;;;;;;;;;;21.77;27.98;96658.94;5420003;26;1171;-74
2024/04/18 10:52:08;;;;;;;;;;;;;;;22.06;27.56;96651.84;5390414;26;1279;-74
2024/04/18 10:54:34;;;;;;;;;;;;;;;21.96;27.76;96670.94;5420031;26;963;-74
2024/04/18 10:57:00;;;;;;;;;;;;;;;21.89;27.89;96657.16;5419895;26;948;-73
2024/04/18 10:59:25;;;;;;;;;;;;;;;21.95;27.68;96677.09;5422250;26;1850;-74
2024/04/18 11:02:01;;;;;;;;;;;;;;;22.00;27.72;96667.94;5419877;26;980;-74
2024/04/18 11:04:26;;;;;;;;;;;;;;;21.79;27.97;96662.06;5388305;26;1210;-74
2024/04/18 11:06:52;;;;;;;;;;;;;;;22.01;27.71;96666.69;5388406;26;920;-75
2024/04/18 11:09:18;;;;;;;;;;;;;;;21.78;27.99;96683.16;5417910;26;765;-74
2024/04/18 11:11:43;;;;;;;;;;;;;;;21.90;27.89;96689.06;5358631;26;873;-75
2024/04/18 11:14:09;;;;;;;;;;;;;;;21.63;28.31;96693.59;5359357;26;1051;-75
2024/04/18 11:16:34;;;;;;;;;;;;;;;21.68;28.22;96687.28;5318471;26;1153;-74
2024/04/18 11:19:00;;;;;;;;;;;;;;;21.95;27.96;96699.75;5346982;26;1873;-74
2024/04/18 11:21:25;;;;;;;;;;;;;;;22.16;27.62;96703.63;5347331;26;858;-75
2024/04/18 11:23:51;;;;;;;;;;;;;;;21.98;27.78;96695.97;5318512;26;893;-74
2024/04/18 11:26:20;;;;;;;;;;;;;;;22.12;27.91;96683.94;5318051;26;1089;-75
2024/04/18 11:28:50;;;;;;;;;;;;;;;22.09;27.75;96704.72;5250070;27;1123;-76
2024/04/18 11:31:15;;;;;;;;;;;;;;;22.07;27.73;96698.75;5250377;27;1119;-75
2024/04/18 11:33:41;;;;;;;;;;;;;;;22.05;27.90;96706.94;5250347;27;1219;-75
2024/04/18 11:36:07;;;;;;;;;;;;;;;21.69;28.33;96705.03;5278127;27;903;-76
2024/04/18 11:38:33;;;;;;;;;;;;;;;21.69;28.09;96714.31;5222551;27;759;-75
2024/04/18 11:40:59;;;;;;;;;;;;;;;21.91;28.01;96713.28;5250591;27;1826;-75
2024/04/18 11:43:24;;;;;;;;;;;;;;;21.72;28.36;96706.94;5250380;27;964;-75
2024/04/18 11:45:50;;;;;;;;;;;;;;;22.08;27.59;96718.13;5250373;27;980;-76
2024/04/18 11:48:15;;;;;;;;;;;;;;;21.90;27.72;96720.22;5250053;27;939;-75
2024/04/18 11:50:41;;;;;;;;;;;;;;;21.88;28.08;96719.94;5222448;27;848;-76
2024/04/18 11:53:09;;;;;;;;;;;;;;;21.76;28.11;96719.66;5252181;27;1005;-76
2024/04/18 11:55:35;;;;;;;;;;;;;;;22.00;27.66;96716.09;5312427;27;920;-76
2024/04/18 11:58:23;;;;;;;;;;;;;;;21.91;27.89;96724.63;5189691;27;917;-75
2024/04/18 12:00:49;;;;;;;;;;;;;;;21.74;28.01;96716.50;5241655;27;1843;-76
2024/04/18 12:03:14;;;;;;;;;;;;;;;21.79;28.06;96718.69;5244227;27;861;-76
2024/04/18 12:05:52;;;;;;;;;;;;;;;21.81;27.98;96723.88;5244814;27;1148;-75
2024/04/18 12:08:17;;;;;;;;;;;;;;;21.83;27.97;96730.63;5244523;27;1143;-76
2024/04/18 12:10:43;;;;;;;;;;;;;;;21.62;28.17;96731.66;5244625;27;971;-76
2024/04/18 12:13:08;;;;;;;;;;;;;;;21.88;27.75;96745.41;5211371;27;978;-77
2024/04/18 12:15:50;;;;;;;;;;;;;;;21.97;27.79;96751.06;5211270;27;1115;-76
2024/04/18 12:18:27;;;;;;;;;;;;;;;21.97;27.79;96748.22;5183505;27;1069;-75
2024/04/18 12:20:53;;;;;;;;;;;;;;;21.97;27.73;96745.38;5211612;27;1826;-76
2024/04/18 12:23:33;;;;;;;;;;;;;;;21.91;27.56;96752.94;5228383;27;1100;-75
2024/04/18 12:26:04;;;;;;;;;;;;;;;21.73;28.18;96742.47;5151061;27;1257;-75
2024/04/18 12:28:42;;;;;;;;;;;;;;;21.93;27.82;96750.44;5121855;27;1161;-75
2024/04/18 12:31:08;;;;;;;;;;;;;;;21.84;27.84;96754.84;5145888;27;952;-76
2024/04/18 12:33:47;;;;;;;;;;;;;;;21.97;27.78;96745.38;5145710;27;1026;-76
2024/04/18 12:36:13;;;;;;;;;;;;;;;21.75;28.02;96754.88;5066654;28;1217;-76
2024/04/18 12:38:39;;;;;;;;;;;;;;;21.94;27.80;96763.31;5087463;28;941;-76
2024/04/18 12:41:05;;;;;;;;;;;;;;;21.79;28.03;96747.00;5113856;28;1851;-75
2024/04/18 12:43:30;;;;;;;;;;;;;;;21.70;28.30;96752.69;5075490;27;1260;-75
2024/04/18 12:45:57;;;;;;;;;;;;;;;22.01;27.52;96762.97;5124292;27;1083;-76
2024/04/18 12:48:41;;;;;;;;;;;;;;;21.91;27.59;96770.72;5155454;27;961;-75
2024/04/18 12:51:07;;;;;;;;;;;;;;;21.85;27.58;96767.75;5151157;27;916;-75
2024/04/18 12:53:41;;;;;;;;;;;;;;;21.90;27.52;96768.38;5128216;27;1283;-75
2024/04/18 12:56:07;;;;;;;;;;;;;;;21.77;27.77;96762.91;5163340;27;1014;-75
2024/04/18 12:58:32;;;;;;;;;;;;;;;21.69;27.77;96736.97;5277858;27;1222;-75
2024/04/18 13:01:07;;;;;;;;;;;;;;;22.00;27.38;96767.06;5346263;26;1495;-75
2024/04/18 13:03:39;;;;;;;;;;;;;;;21.66;27.92;96757.75;5319182;26;1039;-75
2024/04/18 13:06:25;;;;;;;;;;;;;;;21.76;27.80;96764.97;5327304;26;958;-76
2024/04/18 13:08:50;;;;;;;;;;;;;;;21.93;27.52;96767.44;5382530;26;965;-75
2024/04/18 13:11:36;;;;;;;;;;;;;;;21.97;27.32;96765.22;5383001;26;978;-75
2024/04/18 13:14:04;;;;;;;;;;;;;;;21.60;27.91;96762.47;5351551;26;1143;-75